Time;durP1;ratioP1;P1;durP2;ratioP2;P2;SDS_P1;SDS_P2;PMS_P1;PMS_P2;Temp;Humidity;BMP_temperature;BMP_pressure;BME280_temperature;BME280_humidity;BME280_pressure;Samples;Min_cycle;Max_cycle;Signal;HPM_P1;HPM_P2
2022/06/11 00:00:39;;;;;;;1.20;1.20;;;;;;;;;;1854291;76;26378;-51
2022/06/11 00:03:06;;;;;;;1.30;1.10;;;;;;;;;;1857802;76;26306;-52
2022/06/11 00:05:34;;;;;;;1.10;1.10;;;;;;;;;;1852915;75;26310;-50
2022/06/11 00:08:01;;;;;;;1.20;1.20;;;;;;;;;;1867665;75;26657;-50
2022/06/11 00:10:28;;;;;;;1.10;1.10;;;;;;;;;;1874341;75;26309;-52
2022/06/11 00:12:56;;;;;;;1.40;1.30;;;;;;;;;;1863997;75;26268;-48
2022/06/11 00:15:23;;;;;;;1.07;1.07;;;;;;;;;;1871362;75;26307;-53
2022/06/11 00:17:52;;;;;;;1.10;1.10;;;;;;;;;;1867054;75;26709;-52
2022/06/11 00:20:19;;;;;;;0.98;0.98;;;;;;;;;;1797021;78;26738;-55
2022/06/11 00:22:47;;;;;;;0.90;0.90;;;;;;;;;;1830603;78;26278;-49
2022/06/11 00:25:14;;;;;;;1.10;1.10;;;;;;;;;;1829657;78;26271;-47
2022/06/11 00:27:42;;;;;;;0.90;0.90;;;;;;;;;;1802144;78;26728;-48
2022/06/11 00:30:11;;;;;;;0.98;0.98;;;;;;;;;;1798826;78;26249;-49
2022/06/11 00:32:39;;;;;;;1.00;1.00;;;;;;;;;;1805954;78;26708;-48
2022/06/11 00:35:07;;;;;;;1.52;1.10;;;;;;;;;;1829357;77;26283;-50
2022/06/11 00:37:35;;;;;;;1.00;1.00;;;;;;;;;;1826236;77;26289;-53
2022/06/11 00:40:04;;;;;;;1.05;1.05;;;;;;;;;;1829448;78;26318;-51
2022/06/11 00:42:33;;;;;;;0.90;0.90;;;;;;;;;;1829224;77;26763;-51
2022/06/11 00:45:18;;;;;;;1.00;1.00;;;;;;;;;;1829606;78;26295;-48
2022/06/11 00:47:47;;;;;;;1.00;1.00;;;;;;;;;;1829631;78;26296;-46
2022/06/11 00:50:16;;;;;;;1.00;1.00;;;;;;;;;;1829439;77;26291;-49
2022/06/11 00:52:44;;;;;;;1.07;1.07;;;;;;;;;;1824276;77;26251;-47
2022/06/11 00:55:13;;;;;;;1.05;1.05;;;;;;;;;;1829345;78;26287;-49
2022/06/11 00:57:42;;;;;;;0.93;0.93;;;;;;;;;;1823622;78;26300;-49
2022/06/11 01:00:12;;;;;;;0.90;0.90;;;;;;;;;;1829182;78;26294;-52
2022/06/11 01:02:39;;;;;;;0.80;0.80;;;;;;;;;;1828969;77;26750;-52
2022/06/11 01:05:07;;;;;;;0.98;0.98;;;;;;;;;;1829437;77;26271;-51
2022/06/11 01:07:36;;;;;;;0.90;0.90;;;;;;;;;;1819585;78;26268;-51
2022/06/11 01:10:17;;;;;;;0.90;0.90;;;;;;;;;;1823033;77;26386;-48
2022/06/11 01:12:52;;;;;;;0.80;0.80;;;;;;;;;;1821976;78;26770;-49
2022/06/11 01:15:21;;;;;;;0.90;0.90;;;;;;;;;;1812215;78;26208;-53
2022/06/11 01:18:04;;;;;;;0.90;0.90;;;;;;;;;;1822842;78;26219;-47
2022/06/11 01:20:39;;;;;;;1.00;1.00;;;;;;;;;;1815069;78;26785;-49
2022/06/11 01:23:10;;;;;;;0.80;0.80;;;;;;;;;;1822243;78;26275;-49
2022/06/11 01:25:48;;;;;;;0.90;0.90;;;;;;;;;;1817549;78;26243;-50
2022/06/11 01:28:26;;;;;;;1.00;1.00;;;;;;;;;;1816287;78;26263;-47
2022/06/11 01:30:58;;;;;;;0.98;0.98;;;;;;;;;;1820875;78;26286;-48
2022/06/11 01:33:27;;;;;;;0.90;0.90;;;;;;;;;;1822408;77;26711;-48
2022/06/11 01:35:55;;;;;;;0.90;0.90;;;;;;;;;;1814961;79;26801;-46
2022/06/11 01:38:30;;;;;;;0.82;0.82;;;;;;;;;;1798880;79;26726;-47
2022/06/11 01:41:02;;;;;;;0.90;0.90;;;;;;;;;;1819875;79;26279;-54
2022/06/11 01:43:33;;;;;;;0.80;0.80;;;;;;;;;;1814956;77;26280;-46
2022/06/11 01:46:02;;;;;;;0.90;0.90;;;;;;;;;;1805089;79;26282;-49
2022/06/11 01:48:30;;;;;;;0.90;0.90;;;;;;;;;;1820878;77;26259;-50
2022/06/11 01:51:08;;;;;;;0.82;0.82;;;;;;;;;;1820631;79;26266;-51
2022/06/11 01:53:37;;;;;;;0.80;0.80;;;;;;;;;;1828926;77;26317;-46
2022/06/11 01:56:23;;;;;;;0.93;0.93;;;;;;;;;;1820698;79;26247;-50
2022/06/11 01:59:00;;;;;;;0.90;0.90;;;;;;;;;;1820701;79;26263;-51
2022/06/11 02:01:32;;;;;;;0.72;0.72;;;;;;;;;;1812512;79;26251;-46
2022/06/11 02:04:04;;;;;;;0.72;0.72;;;;;;;;;;1820915;79;26286;-52
2022/06/11 02:06:36;;;;;;;0.93;0.93;;;;;;;;;;1820797;79;26228;-49
2022/06/11 02:09:21;;;;;;;0.90;0.90;;;;;;;;;;1808724;79;26404;-49
2022/06/11 02:11:50;;;;;;;0.80;0.80;;;;;;;;;;1820082;79;26294;-49
2022/06/11 02:14:25;;;;;;;0.90;0.90;;;;;;;;;;1820694;79;26283;-50
2022/06/11 02:16:59;;;;;;;0.80;0.80;;;;;;;;;;1832485;77;26795;-49
2022/06/11 02:19:29;;;;;;;0.90;0.90;;;;;;;;;;1825955;77;26608;-52
2022/06/11 02:21:58;;;;;;;0.90;0.90;;;;;;;;;;1817303;79;26290;-47
2022/06/11 02:24:32;;;;;;;1.00;1.00;;;;;;;;;;1808469;79;26365;-51
2022/06/11 02:27:01;;;;;;;0.82;0.82;;;;;;;;;;1820440;79;26641;-48
2022/06/11 02:29:31;;;;;;;0.90;0.90;;;;;;;;;;1812460;79;26322;-50
2022/06/11 02:32:00;;;;;;;0.88;0.88;;;;;;;;;;1815119;79;26369;-52
2022/06/11 02:34:28;;;;;;;1.00;0.98;;;;;;;;;;1788163;79;26435;-49
2022/06/11 02:36:57;;;;;;;0.85;0.85;;;;;;;;;;1799012;78;26283;-49
2022/06/11 02:39:25;;;;;;;1.30;0.88;;;;;;;;;;1800664;78;26584;-48
2022/06/11 02:41:52;;;;;;;0.98;0.80;;;;;;;;;;1808364;78;26271;-49
2022/06/11 02:44:20;;;;;;;0.82;0.82;;;;;;;;;;1804306;79;26808;-53
2022/06/11 02:46:48;;;;;;;0.90;0.90;;;;;;;;;;1806173;79;26263;-48
2022/06/11 02:49:23;;;;;;;0.80;0.80;;;;;;;;;;1804164;78;26365;-51
2022/06/11 02:51:51;;;;;;;0.80;0.80;;;;;;;;;;1799661;79;26369;-53
2022/06/11 02:54:20;;;;;;;0.80;0.80;;;;;;;;;;1807387;79;26323;-50
2022/06/11 02:56:49;;;;;;;0.85;0.85;;;;;;;;;;1807533;79;26236;-46
2022/06/11 02:59:17;;;;;;;1.00;1.00;;;;;;;;;;1806409;79;26370;-51
2022/06/11 03:01:45;;;;;;;0.90;0.90;;;;;;;;;;1803984;79;26363;-47
2022/06/11 03:04:12;;;;;;;0.80;0.80;;;;;;;;;;1806063;79;26220;-48
2022/06/11 03:06:41;;;;;;;0.70;0.70;;;;;;;;;;1807569;79;26271;-49
2022/06/11 03:09:10;;;;;;;0.88;0.88;;;;;;;;;;1801534;79;26294;-50
2022/06/11 03:11:37;;;;;;;0.88;0.88;;;;;;;;;;1803966;79;26295;-50
2022/06/11 03:14:04;;;;;;;0.70;0.70;;;;;;;;;;1803878;79;26319;-51
2022/06/11 03:16:32;;;;;;;0.82;0.82;;;;;;;;;;1807665;79;26294;-49
2022/06/11 03:19:00;;;;;;;0.80;0.80;;;;;;;;;;1806749;79;26292;-51
2022/06/11 03:21:27;;;;;;;0.80;0.80;;;;;;;;;;1804277;79;26378;-54
2022/06/11 03:23:54;;;;;;;0.80;0.80;;;;;;;;;;1807610;79;26276;-49
2022/06/11 03:26:22;;;;;;;0.75;0.75;;;;;;;;;;1807847;79;26621;-50
2022/06/11 03:28:49;;;;;;;0.80;0.80;;;;;;;;;;1797256;78;26287;-51
2022/06/11 03:31:17;;;;;;;2.37;0.93;;;;;;;;;;1801873;79;26770;-48
2022/06/11 03:33:45;;;;;;;0.80;0.80;;;;;;;;;;1798243;79;26583;-51
2022/06/11 03:36:14;;;;;;;0.70;0.70;;;;;;;;;;1784652;79;26398;-52
2022/06/11 03:38:42;;;;;;;0.80;0.80;;;;;;;;;;1793071;79;26834;-50
2022/06/11 03:41:11;;;;;;;0.72;0.72;;;;;;;;;;1808056;79;26284;-48
2022/06/11 03:43:38;;;;;;;0.90;0.90;;;;;;;;;;1785595;79;26291;-50
2022/06/11 03:46:06;;;;;;;0.78;0.78;;;;;;;;;;1807477;79;26216;-53
2022/06/11 03:48:35;;;;;;;0.93;0.93;;;;;;;;;;1805553;78;26616;-49
2022/06/11 03:51:04;;;;;;;0.90;0.90;;;;;;;;;;1805482;79;26715;-48
2022/06/11 03:53:32;;;;;;;0.70;0.70;;;;;;;;;;1807900;78;26330;-53
2022/06/11 03:55:59;;;;;;;0.78;0.78;;;;;;;;;;1798267;79;26296;-54
2022/06/11 03:58:27;;;;;;;0.80;0.80;;;;;;;;;;1806223;79;26208;-53
2022/06/11 04:03:40;;;;;;;1.20;0.80;;;;;;;;;;1793143;79;26341;-49
2022/06/11 04:06:09;;;;;;;0.82;0.82;;;;;;;;;;1805824;79;26742;-52
2022/06/11 04:08:37;;;;;;;0.80;0.80;;;;;;;;;;1796704;79;26705;-52
2022/06/11 04:11:04;;;;;;;0.80;0.80;;;;;;;;;;1806212;79;26311;-49
2022/06/11 04:13:33;;;;;;;0.72;0.72;;;;;;;;;;1797849;79;26300;-49
2022/06/11 04:16:01;;;;;;;0.80;0.80;;;;;;;;;;1788068;79;26276;-49
2022/06/11 04:18:30;;;;;;;0.98;0.98;;;;;;;;;;1798877;78;26761;-53
2022/06/11 04:20:57;;;;;;;0.78;0.70;;;;;;;;;;1801858;79;26332;-51
2022/06/11 04:23:29;;;;;;;0.90;0.90;;;;;;;;;;1807607;79;26263;-48
2022/06/11 04:25:54;;;;;;;0.78;0.78;;;;;;;;;;1795608;79;26311;-50
2022/06/11 04:28:22;;;;;;;0.90;0.90;;;;;;;;;;1809645;78;26275;-49
2022/06/11 04:30:49;;;;;;;0.80;0.80;;;;;;;;;;1808228;79;26283;-50
2022/06/11 04:33:16;;;;;;;0.70;0.70;;;;;;;;;;1804742;79;26299;-49
2022/06/11 04:35:44;;;;;;;0.80;0.80;;;;;;;;;;1794785;78;26336;-48
2022/06/11 04:38:12;;;;;;;0.95;0.95;;;;;;;;;;1796091;79;26276;-49
2022/06/11 04:40:39;;;;;;;0.80;0.80;;;;;;;;;;1795260;79;26852;-47
2022/06/11 04:43:07;;;;;;;0.88;0.88;;;;;;;;;;1803600;79;26267;-53
2022/06/11 04:45:34;;;;;;;0.80;0.80;;;;;;;;;;1808329;79;26263;-51
2022/06/11 04:48:01;;;;;;;0.90;0.90;;;;;;;;;;1807771;78;26318;-50
2022/06/11 04:50:29;;;;;;;0.80;0.80;;;;;;;;;;1794463;79;26264;-53
2022/06/11 04:52:56;;;;;;;0.80;0.80;;;;;;;;;;1806442;78;26315;-49
2022/06/11 04:55:24;;;;;;;0.80;0.80;;;;;;;;;;1806589;79;26302;-53
2022/06/11 04:57:51;;;;;;;0.70;0.70;;;;;;;;;;1773576;79;26787;-52
2022/06/11 05:00:20;;;;;;;0.72;0.72;;;;;;;;;;1806958;78;26298;-50
2022/06/11 05:02:48;;;;;;;0.80;0.80;;;;;;;;;;1799283;79;26369;-46
2022/06/11 05:05:15;;;;;;;1.10;0.80;;;;;;;;;;1793745;79;26821;-49
2022/06/11 05:07:44;;;;;;;0.95;0.95;;;;;;;;;;1791556;79;26285;-50
2022/06/11 05:10:13;;;;;;;0.80;0.80;;;;;;;;;;1803176;79;26728;-51
2022/06/11 05:12:40;;;;;;;0.75;0.75;;;;;;;;;;1807076;79;26393;-50
2022/06/11 05:15:08;;;;;;;0.90;0.90;;;;;;;;;;1805099;79;26369;-50
2022/06/11 05:17:36;;;;;;;0.85;0.85;;;;;;;;;;1796397;79;26744;-53
2022/06/11 05:20:03;;;;;;;0.70;0.70;;;;;;;;;;1807129;79;26283;-54
2022/06/11 05:22:31;;;;;;;0.90;0.90;;;;;;;;;;1807461;79;26267;-48
2022/06/11 05:24:58;;;;;;;0.80;0.80;;;;;;;;;;1808273;79;27502;-49
2022/06/11 05:27:27;;;;;;;0.80;0.80;;;;;;;;;;1793598;79;26814;-53
2022/06/11 05:29:59;;;;;;;0.90;0.90;;;;;;;;;;1808186;79;26301;-51
2022/06/11 05:32:29;;;;;;;0.62;0.62;;;;;;;;;;1786479;79;26399;-51
2022/06/11 05:34:58;;;;;;;0.70;0.70;;;;;;;;;;1806624;79;27259;-49
2022/06/11 05:37:27;;;;;;;0.82;0.82;;;;;;;;;;1804693;78;26311;-52
2022/06/11 05:39:55;;;;;;;0.80;0.80;;;;;;;;;;1795140;79;25836;-51
2022/06/11 05:42:23;;;;;;;0.70;0.70;;;;;;;;;;1807914;79;26281;-46
2022/06/11 05:44:51;;;;;;;0.80;0.80;;;;;;;;;;1807950;79;27434;-51
2022/06/11 05:47:20;;;;;;;0.80;0.80;;;;;;;;;;1794207;78;26763;-47
2022/06/11 05:49:48;;;;;;;0.90;0.90;;;;;;;;;;1818715;78;26268;-51
2022/06/11 05:52:17;;;;;;;0.80;0.80;;;;;;;;;;1823152;78;26279;-50
2022/06/11 05:54:46;;;;;;;0.80;0.80;;;;;;;;;;1807743;79;26267;-51
2022/06/11 05:57:15;;;;;;;0.80;0.80;;;;;;;;;;1795746;79;26421;-48
2022/06/11 05:59:43;;;;;;;0.80;0.80;;;;;;;;;;1804327;79;26750;-49
2022/06/11 06:02:12;;;;;;;0.90;0.90;;;;;;;;;;1805613;79;26755;-49
2022/06/11 06:04:42;;;;;;;0.80;0.80;;;;;;;;;;1807801;79;26316;-48
2022/06/11 06:07:09;;;;;;;0.88;0.88;;;;;;;;;;1777080;78;26304;-49
2022/06/11 06:09:38;;;;;;;1.30;0.80;;;;;;;;;;1794064;78;26319;-51
2022/06/11 06:12:05;;;;;;;2.22;0.80;;;;;;;;;;1807590;78;26242;-49
2022/06/11 06:14:33;;;;;;;0.80;0.80;;;;;;;;;;1803443;78;26264;-51
2022/06/11 06:17:00;;;;;;;0.98;0.98;;;;;;;;;;1799663;79;26264;-50
2022/06/11 06:19:28;;;;;;;0.85;0.85;;;;;;;;;;1807645;79;26349;-49
2022/06/11 06:21:55;;;;;;;1.27;1.17;;;;;;;;;;1808208;79;26766;-49
2022/06/11 06:24:22;;;;;;;0.82;0.82;;;;;;;;;;1801859;79;26294;-48
2022/06/11 06:26:50;;;;;;;1.47;0.90;;;;;;;;;;1808029;79;26299;-47
2022/06/11 06:29:17;;;;;;;0.90;0.90;;;;;;;;;;1799383;79;26259;-49
2022/06/11 06:31:44;;;;;;;0.90;0.90;;;;;;;;;;1797734;79;26345;-46
2022/06/11 06:34:11;;;;;;;0.95;0.95;;;;;;;;;;1803377;79;26249;-49
2022/06/11 06:36:39;;;;;;;1.57;1.00;;;;;;;;;;1810573;78;26374;-51
2022/06/11 06:39:06;;;;;;;1.02;1.00;;;;;;;;;;1801247;77;26689;-49
2022/06/11 06:41:33;;;;;;;0.95;0.90;;;;;;;;;;1810350;79;26372;-46
2022/06/11 06:44:01;;;;;;;3.60;1.00;;;;;;;;;;1821029;79;26345;-50
2022/06/11 06:46:28;;;;;;;1.00;1.00;;;;;;;;;;1818594;79;26786;-50
2022/06/11 06:48:55;;;;;;;1.62;1.00;;;;;;;;;;1811434;79;26714;-53
2022/06/11 06:51:22;;;;;;;1.00;0.95;;;;;;;;;;1811384;77;26752;-47
2022/06/11 06:53:50;;;;;;;0.90;0.90;;;;;;;;;;1807996;79;26250;-51
2022/06/11 06:56:17;;;;;;;0.90;0.90;;;;;;;;;;1799868;79;26340;-46
2022/06/11 06:58:44;;;;;;;2.52;1.10;;;;;;;;;;1807203;79;26295;-51
2022/06/11 07:01:12;;;;;;;4.00;1.25;;;;;;;;;;1811498;79;26980;-48
2022/06/11 07:03:41;;;;;;;0.95;0.88;;;;;;;;;;1809728;79;26710;-51
2022/06/11 07:06:08;;;;;;;0.90;0.90;;;;;;;;;;1816355;79;26349;-48
2022/06/11 07:08:35;;;;;;;4.67;1.20;;;;;;;;;;1810898;79;26883;-48
2022/06/11 07:11:03;;;;;;;1.47;0.82;;;;;;;;;;1818440;79;26845;-49
2022/06/11 07:13:31;;;;;;;4.47;1.05;;;;;;;;;;1783738;79;26318;-54
2022/06/11 07:16:00;;;;;;;0.93;0.93;;;;;;;;;;1820803;79;26886;-49
2022/06/11 07:18:29;;;;;;;1.10;1.10;;;;;;;;;;1820012;79;26286;-49
2022/06/11 07:20:58;;;;;;;2.67;0.90;;;;;;;;;;1804438;79;26342;-49
2022/06/11 07:23:35;;;;;;;1.00;1.00;;;;;;;;;;1826216;77;26628;-46
2022/06/11 07:26:03;;;;;;;2.22;1.02;;;;;;;;;;1810653;79;26295;-55
2022/06/11 07:28:31;;;;;;;1.10;1.10;;;;;;;;;;1804767;79;26753;-48
2022/06/11 07:31:00;;;;;;;0.93;0.93;;;;;;;;;;1819542;79;26777;-54
2022/06/11 07:33:28;;;;;;;5.22;1.20;;;;;;;;;;1815229;79;26743;-56
2022/06/11 07:35:55;;;;;;;1.12;1.02;;;;;;;;;;1820036;79;26274;-50
2022/06/11 07:38:24;;;;;;;2.40;1.05;;;;;;;;;;1806747;78;26888;-54
2022/06/11 07:40:52;;;;;;;3.08;1.10;;;;;;;;;;1808320;79;26733;-51
2022/06/11 07:43:19;;;;;;;3.02;1.20;;;;;;;;;;1807555;79;26287;-52
2022/06/11 07:45:48;;;;;;;3.40;1.27;;;;;;;;;;1801197;79;26283;-53
2022/06/11 07:48:15;;;;;;;4.80;1.17;;;;;;;;;;1807210;79;26367;-50
2022/06/11 07:50:44;;;;;;;1.72;1.27;;;;;;;;;;1807697;79;26272;-50
2022/06/11 07:53:12;;;;;;;7.47;1.32;;;;;;;;;;1799329;79;26261;-52
2022/06/11 07:55:40;;;;;;;1.50;1.20;;;;;;;;;;1806961;79;26271;-54
2022/06/11 07:58:09;;;;;;;1.62;1.17;;;;;;;;;;1808335;79;26357;-51
2022/06/11 08:00:38;;;;;;;5.90;1.30;;;;;;;;;;1807992;79;26805;-50
2022/06/11 08:03:07;;;;;;;2.45;1.10;;;;;;;;;;1805339;79;26933;-55
2022/06/11 08:05:34;;;;;;;2.98;1.30;;;;;;;;;;1808271;79;26780;-52
2022/06/11 08:08:02;;;;;;;1.45;1.25;;;;;;;;;;1811066;78;26363;-50
2022/06/11 08:10:30;;;;;;;5.53;1.30;;;;;;;;;;1813822;78;26311;-48
2022/06/11 08:12:57;;;;;;;2.85;1.10;;;;;;;;;;1798184;79;26286;-51
2022/06/11 08:15:26;;;;;;;6.00;1.40;;;;;;;;;;1799281;79;26764;-50
2022/06/11 08:17:53;;;;;;;4.58;1.30;;;;;;;;;;1808272;79;26287;-49
2022/06/11 08:20:26;;;;;;;1.22;1.00;;;;;;;;;;1808374;79;26291;-52
2022/06/11 08:22:53;;;;;;;4.78;1.27;;;;;;;;;;1808284;79;26200;-53
2022/06/11 08:25:21;;;;;;;2.37;1.10;;;;;;;;;;1807605;79;26346;-54
2022/06/11 08:27:49;;;;;;;1.90;1.25;;;;;;;;;;1802871;79;26684;-50
2022/06/11 08:30:18;;;;;;;2.00;1.20;;;;;;;;;;1812134;78;26315;-53
2022/06/11 08:32:47;;;;;;;3.30;1.40;;;;;;;;;;1813133;78;26296;-54
2022/06/11 08:35:15;;;;;;;2.45;1.20;;;;;;;;;;1805736;79;26350;-55
2022/06/11 08:37:43;;;;;;;1.32;1.05;;;;;;;;;;1806770;78;26399;-47
2022/06/11 08:40:27;;;;;;;2.65;1.10;;;;;;;;;;1799449;79;26787;-50
2022/06/11 08:43:00;;;;;;;1.37;1.07;;;;;;;;;;1810556;79;26724;-51
2022/06/11 08:45:28;;;;;;;1.90;1.30;;;;;;;;;;1804295;79;26357;-49
2022/06/11 08:47:57;;;;;;;2.30;1.30;;;;;;;;;;1810647;77;26308;-54
2022/06/11 08:50:26;;;;;;;1.05;1.02;;;;;;;;;;1820458;79;26743;-53
2022/06/11 08:52:54;;;;;;;2.95;1.10;;;;;;;;;;1804848;79;26238;-49
2022/06/11 08:55:21;;;;;;;2.47;1.32;;;;;;;;;;1817097;79;26295;-54
2022/06/11 08:57:51;;;;;;;1.55;1.07;;;;;;;;;;1820950;79;26349;-55
2022/06/11 09:00:20;;;;;;;3.27;1.35;;;;;;;;;;1813947;79;26912;-52
2022/06/11 09:03:05;;;;;;;1.60;1.12;;;;;;;;;;1818333;77;26272;-49
2022/06/11 09:05:44;;;;;;;1.20;1.20;;;;;;;;;;1804302;79;26280;-55
2022/06/11 09:08:19;;;;;;;2.45;1.37;;;;;;;;;;1808702;77;26241;-52
2022/06/11 09:11:05;;;;;;;3.60;1.40;;;;;;;;;;1816566;77;26772;-52
2022/06/11 09:13:39;;;;;;;1.32;1.25;;;;;;;;;;1820362;79;26388;-53
2022/06/11 09:16:14;;;;;;;1.32;1.22;;;;;;;;;;1814554;79;26765;-53
2022/06/11 09:18:59;;;;;;;1.70;1.17;;;;;;;;;;1819834;79;26636;-51
2022/06/11 09:21:31;;;;;;;1.22;1.20;;;;;;;;;;1797505;79;26372;-48
2022/06/11 09:24:00;;;;;;;1.50;1.10;;;;;;;;;;1820903;79;26735;-51
2022/06/11 09:26:47;;;;;;;1.40;1.20;;;;;;;;;;1820286;79;27623;-49
2022/06/11 09:29:22;;;;;;;1.60;1.40;;;;;;;;;;1821023;79;26219;-54
2022/06/11 09:32:06;;;;;;;1.37;1.25;;;;;;;;;;1805667;79;26279;-50
2022/06/11 09:34:41;;;;;;;2.98;1.30;;;;;;;;;;1818793;79;26770;-54
2022/06/11 09:37:16;;;;;;;1.30;1.20;;;;;;;;;;1797662;78;26380;-53
2022/06/11 09:39:45;;;;;;;1.30;1.20;;;;;;;;;;1796001;79;26635;-49
2022/06/11 09:42:30;;;;;;;2.05;1.22;;;;;;;;;;1808992;77;26356;-51
2022/06/11 09:44:59;;;;;;;1.30;1.20;;;;;;;;;;1820469;79;26731;-50
2022/06/11 09:47:46;;;;;;;1.12;1.12;;;;;;;;;;1824078;77;26658;-49
2022/06/11 09:50:14;;;;;;;1.17;1.10;;;;;;;;;;1826586;77;26286;-55
2022/06/11 09:52:43;;;;;;;1.60;1.32;;;;;;;;;;1816243;79;26291;-52
2022/06/11 09:55:30;;;;;;;1.25;1.25;;;;;;;;;;1819311;79;26306;-52
2022/06/11 09:58:01;;;;;;;1.02;1.02;;;;;;;;;;1708409;83;26378;-52
2022/06/11 10:00:35;;;;;;;1.30;1.20;;;;;;;;;;1704050;83;27301;-47
2022/06/11 10:03:15;;;;;;;1.57;1.10;;;;;;;;;;1751530;79;26220;-52
2022/06/11 10:05:49;;;;;;;0.90;0.90;;;;;;;;;;1817998;79;27389;-49
2022/06/11 10:08:30;;;;;;;1.20;1.20;;;;;;;;;;1813928;79;26364;-50
2022/06/11 10:10:58;;;;;;;1.20;1.20;;;;;;;;;;1819143;79;26326;-52
2022/06/11 10:13:30;;;;;;;1.12;1.10;;;;;;;;;;1819203;79;26357;-53
2022/06/11 10:15:59;;;;;;;2.00;1.22;;;;;;;;;;1818393;79;26275;-51
2022/06/11 10:18:30;;;;;;;1.32;1.22;;;;;;;;;;1818345;79;26294;-53
2022/06/11 10:20:59;;;;;;;1.42;1.30;;;;;;;;;;1803184;79;26282;-51
2022/06/11 10:23:34;;;;;;;1.10;1.10;;;;;;;;;;1811929;79;26340;-53
2022/06/11 10:26:03;;;;;;;1.10;1.10;;;;;;;;;;1816339;79;26291;-49
2022/06/11 10:28:34;;;;;;;1.10;1.10;;;;;;;;;;1811572;77;26255;-50
2022/06/11 10:31:03;;;;;;;1.27;1.15;;;;;;;;;;1814259;79;26219;-49
2022/06/11 10:33:32;;;;;;;1.05;1.05;;;;;;;;;;1814414;79;26374;-52
2022/06/11 10:36:03;;;;;;;1.00;1.00;;;;;;;;;;1820236;79;26317;-49
2022/06/11 10:38:32;;;;;;;1.30;1.20;;;;;;;;;;1809436;78;26882;-52
2022/06/11 10:41:01;;;;;;;1.10;1.10;;;;;;;;;;1807711;79;26809;-49
2022/06/11 10:43:32;;;;;;;1.10;1.10;;;;;;;;;;1808195;79;26880;-53
2022/06/11 10:46:00;;;;;;;1.50;1.40;;;;;;;;;;1800068;79;26341;-53
2022/06/11 10:48:29;;;;;;;1.27;1.10;;;;;;;;;;1807537;79;26302;-49
2022/06/11 10:50:58;;;;;;;1.45;1.20;;;;;;;;;;1808422;79;26345;-52
2022/06/11 10:53:32;;;;;;;1.00;1.00;;;;;;;;;;1796891;79;26757;-49
2022/06/11 10:56:01;;;;;;;1.10;1.10;;;;;;;;;;1806316;79;26279;-52
2022/06/11 10:58:33;;;;;;;2.12;1.30;;;;;;;;;;1806388;79;26350;-51
2022/06/11 11:01:04;;;;;;;1.30;1.20;;;;;;;;;;1789408;79;26304;-47
2022/06/11 11:03:33;;;;;;;1.17;1.10;;;;;;;;;;1802819;79;26318;-53
2022/06/11 11:06:07;;;;;;;3.25;1.20;;;;;;;;;;1795330;79;26426;-57
2022/06/11 11:08:36;;;;;;;1.30;1.20;;;;;;;;;;1800830;78;26377;-57
2022/06/11 11:11:05;;;;;;;1.45;1.20;;;;;;;;;;1791345;79;26396;-55
2022/06/11 11:13:34;;;;;;;1.72;1.45;;;;;;;;;;1799693;79;26347;-51
2022/06/11 11:16:09;;;;;;;1.60;1.20;;;;;;;;;;1797041;79;26814;-51
2022/06/11 11:18:37;;;;;;;1.50;1.30;;;;;;;;;;1806238;79;26390;-52
2022/06/11 11:21:05;;;;;;;4.50;1.30;;;;;;;;;;1791833;79;26733;-50
2022/06/11 11:23:40;;;;;;;1.47;1.20;;;;;;;;;;1789444;79;26294;-48
2022/06/11 11:26:21;;;;;;;1.90;1.25;;;;;;;;;;1800278;78;26688;-53
2022/06/11 11:28:53;;;;;;;1.25;1.15;;;;;;;;;;1787521;79;26208;-53
2022/06/11 11:31:24;;;;;;;3.00;1.50;;;;;;;;;;1805187;79;26308;-56
2022/06/11 11:34:02;;;;;;;2.02;1.37;;;;;;;;;;1797628;79;26302;-54
2022/06/11 11:36:30;;;;;;;5.10;1.47;;;;;;;;;;1804017;78;26287;-53
2022/06/11 11:39:02;;;;;;;3.45;1.10;;;;;;;;;;1802822;78;26385;-54
2022/06/11 11:41:31;;;;;;;2.12;1.32;;;;;;;;;;1816703;78;26306;-54
2022/06/11 11:43:58;;;;;;;2.85;1.40;;;;;;;;;;1804876;78;26265;-53
2022/06/11 11:46:27;;;;;;;1.22;1.12;;;;;;;;;;1806234;78;26270;-49
2022/06/11 11:48:56;;;;;;;1.30;1.20;;;;;;;;;;1810160;78;26742;-49
2022/06/11 11:51:28;;;;;;;2.17;1.40;;;;;;;;;;1823313;78;26282;-48
2022/06/11 11:53:56;;;;;;;2.60;1.30;;;;;;;;;;1818757;78;26285;-56
2022/06/11 11:56:25;;;;;;;2.90;1.30;;;;;;;;;;1816981;78;26294;-49
2022/06/11 11:58:54;;;;;;;3.02;1.40;;;;;;;;;;1831274;73;50660;-83
2022/06/11 12:01:22;;;;;;;1.55;1.42;;;;;;;;;;1799709;78;26963;-83
2022/06/11 12:03:52;;;;;;;1.37;1.27;;;;;;;;;;1837200;77;26217;-83
2022/06/11 12:06:33;;;;;;;2.30;1.40;;;;;;;;;;1832707;77;26756;-83
2022/06/11 12:09:02;;;;;;;3.50;1.35;;;;;;;;;;1832997;77;26543;-85
2022/06/11 12:11:32;;;;;;;1.42;1.30;;;;;;;;;;1774641;78;26290;-85
2022/06/11 12:14:00;;;;;;;2.00;1.17;;;;;;;;;;1835184;77;26280;-85
2022/06/11 12:16:29;;;;;;;6.67;1.27;;;;;;;;;;1814889;77;26313;-85
2022/06/11 12:18:59;;;;;;;1.15;1.12;;;;;;;;;;1816172;78;26271;-85
2022/06/11 12:21:28;;;;;;;2.62;1.07;;;;;;;;;;1811237;78;26346;-86
2022/06/11 12:23:57;;;;;;;2.37;1.17;;;;;;;;;;1815405;77;26263;-86
2022/06/11 12:26:29;;;;;;;1.45;1.10;;;;;;;;;;1815192;77;26279;-85
2022/06/11 12:29:05;;;;;;;1.05;1.05;;;;;;;;;;1813436;77;26315;-85
2022/06/11 12:31:33;;;;;;;1.62;1.20;;;;;;;;;;1824596;77;26878;-85
2022/06/11 12:34:05;;;;;;;1.55;1.20;;;;;;;;;;1823216;78;26905;-85
2022/06/11 12:36:40;;;;;;;2.35;1.00;;;;;;;;;;1807926;78;26308;-86
2022/06/11 12:39:12;;;;;;;1.25;0.98;;;;;;;;;;1824998;77;26276;-85
2022/06/11 12:41:44;;;;;;;1.20;1.10;;;;;;;;;;1827763;77;26310;-85
2022/06/11 12:44:18;;;;;;;1.55;0.90;;;;;;;;;;1821273;78;26748;-84
2022/06/11 12:47:04;;;;;;;0.90;0.90;;;;;;;;;;1832718;77;26730;-85
2022/06/11 12:49:38;;;;;;;1.30;1.20;;;;;;;;;;1830539;77;25734;-84
2022/06/11 12:52:11;;;;;;;1.00;1.00;;;;;;;;;;1821636;77;26267;-85
2022/06/11 12:54:45;;;;;;;1.90;1.00;;;;;;;;;;1819612;77;26270;-84
2022/06/11 12:57:13;;;;;;;1.85;1.00;;;;;;;;;;1791192;79;27058;-84
2022/06/11 12:59:41;;;;;;;1.00;1.00;;;;;;;;;;1780288;79;26330;-84
2022/06/11 13:02:10;;;;;;;0.90;0.90;;;;;;;;;;1771461;79;26227;-84
2022/06/11 13:04:51;;;;;;;0.95;0.95;;;;;;;;;;1776639;79;26316;-86
2022/06/11 13:07:20;;;;;;;0.90;0.90;;;;;;;;;;1776539;79;26283;-85
2022/06/11 13:09:58;;;;;;;1.52;1.07;;;;;;;;;;1777293;79;26316;-84
2022/06/11 13:12:33;;;;;;;1.00;1.00;;;;;;;;;;1765026;79;26314;-84
2022/06/11 13:15:18;;;;;;;0.90;0.90;;;;;;;;;;1765661;79;26272;-85
2022/06/11 13:17:57;;;;;;;0.98;0.98;;;;;;;;;;1776920;79;26363;-84
2022/06/11 13:20:43;;;;;;;1.17;1.00;;;;;;;;;;1767988;79;26302;-85
2022/06/11 13:23:12;;;;;;;1.22;0.90;;;;;;;;;;1775885;81;26290;-85
2022/06/11 13:25:53;;;;;;;1.05;1.02;;;;;;;;;;1768289;79;26288;-84
2022/06/11 13:28:24;;;;;;;1.07;1.07;;;;;;;;;;1763521;79;26323;-84
2022/06/11 13:31:05;;;;;;;1.05;0.90;;;;;;;;;;1766109;79;26302;-85
2022/06/11 13:33:51;;;;;;;1.85;0.90;;;;;;;;;;1767290;79;26294;-84
2022/06/11 13:36:29;;;;;;;1.05;0.90;;;;;;;;;;1769406;79;26801;-85
2022/06/11 13:39:00;;;;;;;1.00;1.00;;;;;;;;;;1758137;79;26399;-84
2022/06/11 13:41:38;;;;;;;1.80;1.10;;;;;;;;;;1757440;79;26290;-84
2022/06/11 13:44:07;;;;;;;2.42;0.90;;;;;;;;;;1768451;79;26722;-84
2022/06/11 13:46:35;;;;;;;1.00;1.00;;;;;;;;;;1774827;79;26318;-84
2022/06/11 13:49:04;;;;;;;1.00;1.00;;;;;;;;;;1768934;79;26290;-84
2022/06/11 13:51:33;;;;;;;0.90;0.90;;;;;;;;;;1781531;79;26381;-84
2022/06/11 13:57:03;;;;;;;1.17;1.10;;;;;;;;;;1804369;78;26388;-84
2022/06/11 13:59:32;;;;;;;1.02;0.95;;;;;;;;;;1810355;78;26294;-85
2022/06/11 14:02:16;;;;;;;1.10;1.00;;;;;;;;;;1796203;78;26852;-85
2022/06/11 14:04:51;;;;;;;0.98;0.98;;;;;;;;;;1794471;79;26553;-85
2022/06/11 14:07:19;;;;;;;1.10;1.00;;;;;;;;;;1799603;78;26360;-85
2022/06/11 14:12:41;;;;;;;0.95;0.95;;;;;;;;;;1783602;80;26301;-85
2022/06/11 14:15:22;;;;;;;0.98;0.98;;;;;;;;;;1773613;79;26804;-85
2022/06/11 14:17:54;;;;;;;1.40;1.10;;;;;;;;;;1787358;79;26304;-85
2022/06/11 14:20:26;;;;;;;0.90;0.90;;;;;;;;;;1785778;79;26357;-85
2022/06/11 14:22:54;;;;;;;1.25;1.15;;;;;;;;;;1787077;79;26630;-84
2022/06/11 14:25:40;;;;;;;1.65;1.00;;;;;;;;;;1784287;79;26293;-85
2022/06/11 14:28:18;;;;;;;1.07;1.00;;;;;;;;;;1774216;79;26841;-85
2022/06/11 14:30:51;;;;;;;1.20;1.05;;;;;;;;;;1772554;79;26336;-85
2022/06/11 14:33:23;;;;;;;0.90;0.90;;;;;;;;;;1777282;79;26302;-85
2022/06/11 14:35:53;;;;;;;1.70;0.85;;;;;;;;;;1774879;79;26439;-85
2022/06/11 14:38:28;;;;;;;0.90;0.90;;;;;;;;;;1780773;79;26381;-82
2022/06/11 14:40:55;;;;;;;1.05;1.05;;;;;;;;;;1783204;79;26747;-84
2022/06/11 14:43:23;;;;;;;1.15;0.93;;;;;;;;;;1774118;79;26758;-84
2022/06/11 14:45:51;;;;;;;1.17;1.12;;;;;;;;;;1797021;79;27401;-87
2022/06/11 14:48:23;;;;;;;0.90;0.90;;;;;;;;;;1781560;79;26382;-85
2022/06/11 14:50:52;;;;;;;1.20;1.10;;;;;;;;;;1787014;79;26687;-85
2022/06/11 14:53:30;;;;;;;0.82;0.82;;;;;;;;;;1771813;79;26869;-85
2022/06/11 14:55:59;;;;;;;0.90;0.90;;;;;;;;;;1784830;79;26270;-85
2022/06/11 14:58:35;;;;;;;1.00;1.00;;;;;;;;;;1797949;79;26365;-85
2022/06/11 15:01:10;;;;;;;0.93;0.93;;;;;;;;;;1778333;79;26372;-85
2022/06/11 15:03:51;;;;;;;1.00;1.00;;;;;;;;;;1778213;80;26348;-84
2022/06/11 15:06:35;;;;;;;0.90;0.90;;;;;;;;;;1774904;79;26278;-85
2022/06/11 15:09:07;;;;;;;0.90;0.90;;;;;;;;;;1790098;79;26234;-85
2022/06/11 15:11:35;;;;;;;1.00;1.00;;;;;;;;;;1779627;79;26253;-84